Stations météo

réclame
Mon MeteoGroup
Rensjoen, Suède (2031): Température de l'air & dewpoint: 21.04.2018 08:00:00 - 27.04.2018 08:00:00 (CEST)Rensjoen, Suède (2031): Vitesse du vent & gusts: 21.04.2018 08:00:00 - 27.04.2018 08:00:00 (CEST)Rensjoen, Suède (2031): Direction du vent: 21.04.2018 08:00:00 - 27.04.2018 08:00:00 (CEST)Rensjoen, Suède (2031): visibility: 21.04.2018 08:00:00 - 27.04.2018 08:00:00 (CEST)Rensjoen, Suède (2031): Quantités de précipitations: 21.04.2018 08:00:00 - 27.04.2018 08:00:00 (CEST)
Date & Time tt [°C] td [°C] ff [km/h] ff [knt] fx [km/h] fx [knt] dd vv [km] rr [mm]
27.04.2018 08:00:00 - - - - - - - - -
27.04.2018 07:00:00 0,5 0,4 0 0 0 0 N 8 0,2
27.04.2018 06:00:00 0,0 -0,1 0 0 2 1 N 2,9 0,7
27.04.2018 05:00:00 0,0 -0,1 0 0 2 1 N 0,8 2,1
27.04.2018 04:00:00 -0,3 -0,6 3 1 3 2 SSE 0,8 0,9
27.04.2018 03:00:00 -0,1 -0,8 3 2 6 3 SW 9 0,0
27.04.2018 02:00:00 0,2 -1,2 3 2 8 4 NE 40 0,1
27.04.2018 01:00:00 0,2 -1,4 2 1 5 3 ESE 11 0,0
27.04.2018 00:00:00 0,6 -1,8 0 0 6 4 N 29 0,0
26.04.2018 23:00:00 0,9 -2,0 4 2 16 8 N 14 0,0
26.04.2018 22:00:00 0,9 -1,5 6 4 17 9 NE 50 0,0
26.04.2018 21:00:00 1,4 -1,5 8 4 24 13 NNE 50 0,0
26.04.2018 20:00:00 1,7 -1,0 9 5 17 9 ENE 50 0,0
26.04.2018 19:00:00 2,0 -0,7 0 0 15 8 N 50 0,0
26.04.2018 18:00:00 1,8 -0,8 13 7 20 11 N 50 0,0
26.04.2018 17:00:00 3,0 -0,6 11 6 25 13 NW 50 0,0
26.04.2018 16:00:00 2,5 -0,8 16 9 27 15 NW 50 0,0
26.04.2018 15:00:00 2,5 -0,8 13 7 26 14 NNW 50 0,0
26.04.2018 14:00:00 2,7 -0,9 11 6 26 14 NNW 42 0,0
26.04.2018 13:00:00 2,9 -2,0 5 3 16 9 NE 48 0,0
26.04.2018 12:00:00 3,2 -3,0 9 5 19 10 N 50 0,0
26.04.2018 11:00:00 3,5 -2,7 14 7 24 13 NNW 40 0,0
26.04.2018 10:00:00 2,6 -2,1 10 6 21 12 N 50 0,0
26.04.2018 09:00:00 2,0 -2,3 16 9 28 15 NNW 39 0,0
26.04.2018 08:00:00 1,7 -2,3 19 10 30 16 NNW 50 0,0
26.04.2018 07:00:00 1,7 -2,4 10 5 18 10 N 50 0,0
26.04.2018 06:00:00 1,3 -1,9 14 7 26 14 N 50 0,0
26.04.2018 05:00:00 0,8 -0,8 13 7 26 14 N 50 0,0
26.04.2018 04:00:00 1,3 -1,1 15 8 27 15 NNW 50 0,0
26.04.2018 03:00:00 1,2 -0,4 11 6 18 10 NNW 50 0,0
26.04.2018 02:00:00 1,2 0,0 8 5 13 7 N 50 0,0
26.04.2018 01:00:00 0,5 0,4 2 1 8 4 WNW 50 0,0
26.04.2018 00:00:00 0,6 0,3 2 1 8 5 SSE 50 0,0
25.04.2018 23:00:00 0,6 0,3 3 2 6 3 S 50 0,0
25.04.2018 22:00:00 0,9 0,3 2 1 7 4 E 13 0,0
25.04.2018 21:00:00 1,5 0,0 3 2 5 3 NE 39 0,0
25.04.2018 20:00:00 2,0 -0,1 3 2 6 3 NE 50 0,0
25.04.2018 19:00:00 1,7 0,1 6 3 8 5 NE 50 0,0
25.04.2018 18:00:00 2,2 -0,2 7 4 10 6 NE 50 0,0
25.04.2018 17:00:00 3,6 -2,0 3 2 5 3 NNE 50 0,0
25.04.2018 16:00:00 3,7 -2,1 4 2 6 3 NNE 50 0,0
25.04.2018 15:00:00 4,4 -2,5 2 1 5 3 N 50 0,0
25.04.2018 14:00:00 5,7 -2,6 0 0 6 3 N 42 0,0
25.04.2018 13:00:00 3,6 -2,6 3 2 10 5 SE 50 0,0
25.04.2018 12:00:00 3,8 -2,2 5 3 10 6 SSW 40 0,0
25.04.2018 11:00:00 2,4 -2,7 5 3 8 4 S 46 0,0
25.04.2018 10:00:00 2,3 -2,2 4 2 9 5 WNW 49 0,0
25.04.2018 09:00:00 1,5 -1,9 2 1 7 4 WNW 33 0,0
25.04.2018 08:00:00 0,1 -1,8 0 0 4 2 N 29 0,0
25.04.2018 07:00:00 -1,4 -1,8 3 1 5 3 N 46 0,0
25.04.2018 06:00:00 -1,7 -1,8 0 0 5 3 N 50 0,0
25.04.2018 05:00:00 -2,6 -2,7 0 0 4 2 N 16 0,0
25.04.2018 04:00:00 -2,2 -2,6 3 1 6 3 WSW 50 0,0
25.04.2018 03:00:00 -1,5 -1,8 5 3 10 5 ESE 8 0,0
25.04.2018 02:00:00 -1,5 -1,6 9 5 14 8 SSE 38 0,1
25.04.2018 01:00:00 -1,2 -1,3 12 7 16 9 SSE 16 0,0
25.04.2018 00:00:00 -1,0 -1,1 11 6 16 9 SSE 7 0,1
24.04.2018 23:00:00 -0,8 -0,9 12 7 20 11 SSE 4,2 0,2
24.04.2018 22:00:00 -0,6 -0,9 14 8 23 12 SSE 3,0 0,2
24.04.2018 21:00:00 -0,3 -1,0 18 10 25 13 SSE 16 0,0
24.04.2018 20:00:00 0,0 -1,1 17 9 23 13 SSE 11 0,0
24.04.2018 19:00:00 0,4 -1,0 13 7 25 14 SSE 33 0,0
24.04.2018 18:00:00 0,3 -0,8 18 10 29 16 SSE 8 0,0
24.04.2018 17:00:00 1,1 -0,5 15 8 23 12 S 37 0,0
24.04.2018 16:00:00 1,4 -0,4 19 10 33 18 SSE 50 0,0
24.04.2018 15:00:00 1,9 -0,8 22 12 36 19 S 50 0,0
24.04.2018 14:00:00 2,3 -0,8 26 14 41 22 S 45 0,0
24.04.2018 13:00:00 2,3 -0,5 23 12 37 20 S 45 0,0
24.04.2018 12:00:00 1,5 -0,3 23 12 35 19 S 17 0,0
24.04.2018 11:00:00 1,6 -0,5 21 11 37 20 S 28 0,0
24.04.2018 10:00:00 1,6 -1,1 22 12 33 18 S 50 0,0
24.04.2018 09:00:00 1,2 -0,6 24 13 40 22 S 43 0,0
24.04.2018 08:00:00 1,2 -0,6 28 15 39 21 S 50 0,0
24.04.2018 07:00:00 1,4 -0,5 14 8 38 21 SSE 50 0,0
24.04.2018 06:00:00 1,6 -0,2 25 14 34 19 S 50 0,0
24.04.2018 05:00:00 1,6 -0,2 25 14 36 20 S 50 0,1
24.04.2018 04:00:00 1,6 0,0 22 12 41 22 S 24 0,2
24.04.2018 03:00:00 1,9 -0,2 23 13 41 22 SSW 11 0,1
24.04.2018 02:00:00 1,6 -0,2 24 13 35 19 SSW 23 0,0
24.04.2018 01:00:00 1,3 -0,2 26 14 39 21 S 41 0,1
24.04.2018 00:00:00 0,8 -0,2 28 15 39 21 S 11 0,0
23.04.2018 23:00:00 0,9 -0,3 24 13 35 19 S 50 0,0
23.04.2018 22:00:00 0,9 0,2 23 12 33 18 S 14 0,0
23.04.2018 21:00:00 1,2 0,0 22 12 31 17 S 50 0,0
23.04.2018 20:00:00 1,2 0,2 22 12 38 21 S 16 0,0
23.04.2018 19:00:00 1,2 0,2 22 12 37 20 S 25 0,2
23.04.2018 18:00:00 1,2 0,3 25 13 39 21 S 13 0,1
23.04.2018 17:00:00 1,9 0,1 17 9 31 17 S 12 0,0
23.04.2018 16:00:00 2,4 -0,5 20 11 29 16 SSE 50 0,0
23.04.2018 15:00:00 2,5 -0,6 23 12 34 18 SSE 50 0,0
23.04.2018 14:00:00 2,2 -0,6 21 11 29 16 S 50 0,0
23.04.2018 13:00:00 1,9 -0,5 17 9 27 15 SSE 50 0,0
23.04.2018 12:00:00 1,5 -0,4 19 11 26 14 SSE 50 0,0
23.04.2018 11:00:00 1,2 -0,6 17 9 24 13 SSE 47 0,0
23.04.2018 10:00:00 0,6 -1,6 13 7 18 10 SSE 38 0,0
23.04.2018 09:00:00 0,1 -2,6 14 8 19 10 SSE 50 0,0
23.04.2018 08:00:00 -0,2 -2,7 15 8 21 11 SSE 50 0,0
23.04.2018 07:00:00 -0,4 -2,9 15 8 20 11 SSE 50 0,0
23.04.2018 06:00:00 -0,5 -3,2 11 6 16 8 SSE 50 0,0
23.04.2018 05:00:00 -0,3 -3,7 10 5 14 8 SE 50 0,0
23.04.2018 04:00:00 -0,2 -3,7 10 5 17 9 SE 50 0,0
23.04.2018 03:00:00 -0,3 -3,5 7 4 13 7 S 50 0,0
23.04.2018 02:00:00 -0,2 -3,7 6 4 13 7 S 50 0,0
23.04.2018 01:00:00 0,0 -3,7 8 5 11 6 S 50 0,0
23.04.2018 00:00:00 0,1 -3,1 4 2 6 3 SSW 50 0,0
22.04.2018 23:00:00 0,3 -3,4 4 2 7 4 S 50 0,0
22.04.2018 22:00:00 0,5 -3,4 4 2 9 5 SSW 50 0,0
22.04.2018 21:00:00 0,6 -3,5 6 3 11 6 SE 50 0,0
22.04.2018 20:00:00 1,3 -3,2 5 3 9 5 E 50 0,0
22.04.2018 19:00:00 1,6 -1,8 8 4 16 9 ENE 50 0,0
22.04.2018 18:00:00 1,8 -1,5 12 6 18 10 NE 47 0,0
22.04.2018 17:00:00 2,7 -1,8 16 8 25 14 N 37 0,0
22.04.2018 16:00:00 2,9 -1,6 16 8 29 16 NNW 45 0,0
22.04.2018 15:00:00 2,8 -1,7 17 9 28 15 N 47 0,0
22.04.2018 14:00:00 2,8 -1,9 14 8 29 15 N 50 0,0
22.04.2018 13:00:00 2,4 -1,6 15 8 27 15 N 50 0,0
22.04.2018 12:00:00 2,4 -1,4 17 9 29 16 NNW 50 0,0
22.04.2018 11:00:00 2,7 -1,3 15 8 25 14 NNW 49 0,0
22.04.2018 10:00:00 2,2 -0,9 15 8 26 14 NNW 50 0,0
22.04.2018 09:00:00 2,2 -0,7 11 6 20 11 N 41 0,0
22.04.2018 08:00:00 2,7 -1,3 4 2 13 7 N 50 0,0
22.04.2018 07:00:00 1,2 -0,6 6 3 14 7 ENE 50 0,0
22.04.2018 06:00:00 1,0 0,3 5 3 17 9 NW 50 0,0
22.04.2018 05:00:00 -1,5 -1,6 4 2 9 5 WSW 9 0,0
22.04.2018 04:00:00 -1,6 -1,7 3 1 4 2 SE 6 0,0
22.04.2018 03:00:00 -1,6 -1,9 4 2 5 3 S 17 0,0
22.04.2018 02:00:00 -0,9 -1,2 0 0 5 3 N 21 0,0
22.04.2018 01:00:00 -0,8 -1,2 3 2 4 2 W 34 0,0
22.04.2018 00:00:00 -0,5 -1,1 4 2 14 7 SW 41 0,0
21.04.2018 23:00:00 -0,3 -1,0 10 5 16 9 SE 50 0,0
21.04.2018 22:00:00 -0,2 -0,9 12 6 16 9 SSE 50 0,0
21.04.2018 21:00:00 0,1 -0,8 8 5 13 7 S 46 0,0
21.04.2018 20:00:00 0,3 -0,8 8 4 13 7 SSE 21 0,1
21.04.2018 19:00:00 0,6 -0,9 10 5 13 7 SSE 29 0,0
21.04.2018 18:00:00 0,7 -1,1 8 5 13 7 SSE 44 0,0
21.04.2018 17:00:00 0,7 -1,2 11 6 15 8 SSE 44 0,0
21.04.2018 16:00:00 0,9 -1,3 10 5 16 9 SSE 33 0,0
21.04.2018 15:00:00 0,9 -1,2 13 7 17 9 SSE 10 0,0
21.04.2018 14:00:00 0,7 -0,9 8 5 15 8 S 4,9 0,1
21.04.2018 13:00:00 0,3 -0,7 9 5 14 7 SE 3,6 0,0
21.04.2018 12:00:00 0,1 -0,6 10 5 15 8 SE 2,4 0,0
21.04.2018 11:00:00 0,0 -0,6 7 4 15 8 SSE 1,7 0,0
21.04.2018 10:00:00 -0,2 -0,9 9 5 16 9 SE 5 0,0
21.04.2018 09:00:00 -0,3 -0,4 9 5 18 10 SE 7 0,0
21.04.2018 08:00:00 -0,5 -0,5 12 7 17 9 SE 7 0,0

tt = Température de l'air
td = dewpoint
ff = Vitesse du vent
fx = gusts
dd = Direction du vent
vv = visibility
rr = Quantités de précipitations

stations d'obs. à proximité